Time;durP1;ratioP1;P1;durP2;ratioP2;P2;SDS_P1;SDS_P2;PMS_P1;PMS_P2;Temp;Humidity;BMP_temperature;BMP_pressure;BME280_temperature;BME280_humidity;BME280_pressure;Samples;Min_cycle;Max_cycle;Signal;HPM_P1;HPM_P2
2021/07/09 00:01:14;;;;;;;22.90;20.63;;;20.10;99.90;;;;;;4924313;29;20576;-87
2021/07/09 00:03:44;;;;;;;22.83;20.53;;;20.20;99.90;;;;;;4922065;29;20213;-87
2021/07/09 00:06:13;;;;;;;23.80;21.07;;;20.30;99.90;;;;;;4919704;29;20578;-86
2021/07/09 00:08:42;;;;;;;21.57;18.27;;;20.40;99.90;;;;;;4918935;29;20218;-86
2021/07/09 00:11:11;;;;;;;19.83;17.40;;;20.70;99.90;;;;;;4943889;28;20285;-85
2021/07/09 00:13:41;;;;;;;19.80;17.70;;;20.70;99.90;;;;;;4930509;28;20230;-85
2021/07/09 00:16:11;;;;;;;18.10;16.30;;;20.80;99.90;;;;;;4922386;29;20217;-85
2021/07/09 00:18:40;;;;;;;17.93;16.27;;;21.00;99.90;;;;;;4914361;29;20896;-85
2021/07/09 00:21:09;;;;;;;18.60;16.20;;;21.00;99.90;;;;;;4918197;29;20198;-84
2021/07/09 00:23:41;;;;;;;19.23;17.30;;;21.00;99.90;;;;;;4921771;29;20209;-86
2021/07/09 00:26:09;;;;;;;18.73;16.70;;;21.00;99.90;;;;;;4920764;29;20328;-85
2021/07/09 00:28:38;;;;;;;18.37;16.10;;;21.00;99.90;;;;;;4918524;29;20237;-85
2021/07/09 00:31:08;;;;;;;17.30;15.70;;;21.10;99.90;;;;;;4915792;29;20245;-86
2021/07/09 00:33:37;;;;;;;16.53;14.83;;;21.30;99.90;;;;;;4918760;29;20209;-86
2021/07/09 00:36:06;;;;;;;15.57;14.23;;;21.40;99.90;;;;;;4916260;29;20203;-85
2021/07/09 00:38:35;;;;;;;17.13;15.37;;;21.30;99.90;;;;;;4917110;29;20213;-86
2021/07/09 00:41:04;;;;;;;17.30;15.50;;;21.20;99.90;;;;;;4917384;29;20743;-85
2021/07/09 00:43:33;;;;;;;18.23;15.93;;;21.10;99.90;;;;;;4921892;29;20213;-85
2021/07/09 00:46:02;;;;;;;19.10;16.90;;;21.10;99.90;;;;;;4937313;29;20217;-85
2021/07/09 00:48:32;;;;;;;17.17;15.37;;;21.10;99.90;;;;;;4924578;29;20294;-85
2021/07/09 00:51:06;;;;;;;17.97;16.03;;;21.10;99.90;;;;;;4918552;29;20274;-86
2021/07/09 00:53:35;;;;;;;17.47;15.73;;;21.10;99.90;;;;;;4932498;29;20205;-84
2021/07/09 00:56:05;;;;;;;17.27;15.33;;;21.10;99.90;;;;;;4930238;29;20210;-85
2021/07/09 00:58:34;;;;;;;16.03;14.47;;;21.10;99.90;;;;;;4928375;29;20202;-85
2021/07/09 01:01:03;;;;;;;16.43;14.40;;;21.30;99.90;;;;;;4930619;29;20262;-85
2021/07/09 01:03:34;;;;;;;17.77;15.37;;;21.20;99.90;;;;;;4932501;29;20214;-85
2021/07/09 01:06:03;;;;;;;17.23;15.50;;;21.20;99.90;;;;;;4930238;29;20202;-86
2021/07/09 01:08:32;;;;;;;15.50;13.90;;;21.20;99.90;;;;;;4938304;29;20216;-87
2021/07/09 01:11:01;;;;;;;14.97;13.47;;;21.50;99.90;;;;;;4941454;28;20202;-85
2021/07/09 01:13:30;;;;;;;18.13;16.30;;;21.60;99.90;;;;;;4924286;29;20285;-86
2021/07/09 01:15:58;;;;;;;19.23;17.13;;;21.80;99.90;;;;;;4920601;29;20281;-85
2021/07/09 01:18:28;;;;;;;18.60;17.10;;;22.10;99.90;;;;;;4924209;29;20205;-85
2021/07/09 01:21:01;;;;;;;18.75;15.40;;;22.40;99.90;;;;;;4940428;28;20209;-83
2021/07/09 01:23:31;;;;;;;17.23;15.75;;;22.60;99.90;;;;;;4924797;29;20202;-84
2021/07/09 01:26:01;;;;;;;16.00;14.65;;;22.80;99.90;;;;;;4927038;29;20221;-86
2021/07/09 01:28:30;;;;;;;17.52;15.75;;;22.90;99.90;;;;;;4920513;29;20337;-86
2021/07/09 01:30:59;;;;;;;17.40;15.63;;;23.00;99.90;;;;;;4916144;29;20218;-86
2021/07/09 01:33:28;;;;;;;16.73;15.07;;;23.00;99.90;;;;;;4931817;29;20233;-86
2021/07/09 01:35:57;;;;;;;14.73;11.63;;;23.00;99.90;;;;;;4931209;29;20689;-85
2021/07/09 01:38:26;;;;;;;12.00;9.80;;;23.00;99.50;;;;;;4900269;29;20230;-88
2021/07/09 01:40:55;;;;;;;11.93;8.85;;;23.10;96.50;;;;;;4933536;29;20206;-85
2021/07/09 01:43:25;;;;;;;10.27;9.25;;;23.10;95.50;;;;;;4922401;29;20202;-85
2021/07/09 01:45:55;;;;;;;8.77;7.88;;;23.20;95.50;;;;;;4925551;29;20243;-86
2021/07/09 01:48:24;;;;;;;9.20;8.30;;;23.20;94.60;;;;;;4927128;29;20665;-85
2021/07/09 01:50:53;;;;;;;9.10;8.18;;;23.10;95.50;;;;;;4918818;29;20210;-85
2021/07/09 01:53:22;;;;;;;9.88;7.90;;;23.00;95.70;;;;;;4927774;29;20592;-85
2021/07/09 01:55:51;;;;;;;8.88;7.80;;;22.90;95.50;;;;;;4929350;29;20202;-85
2021/07/09 01:58:20;;;;;;;8.25;7.45;;;22.90;95.50;;;;;;4927123;29;20932;-86
2021/07/09 02:00:50;;;;;;;7.72;7.03;;;22.70;95.60;;;;;;4928068;29;20214;-85
2021/07/09 02:03:20;;;;;;;7.68;6.97;;;22.60;95.50;;;;;;4921568;29;20468;-86
2021/07/09 02:05:50;;;;;;;9.02;7.75;;;22.60;95.70;;;;;;4922773;29;20221;-87
2021/07/09 02:08:19;;;;;;;8.55;7.05;;;22.60;95.80;;;;;;4918319;29;20328;-88
2021/07/09 02:10:50;;;;;;;8.25;7.47;;;22.50;96.10;;;;;;4922754;29;20214;-88
2021/07/09 02:13:21;;;;;;;8.50;7.70;;;22.40;96.40;;;;;;4905937;29;21949;-86
2021/07/09 02:15:51;;;;;;;9.30;7.88;;;22.30;96.60;;;;;;4920086;29;20807;-86
2021/07/09 02:18:19;;;;;;;8.48;7.78;;;22.30;97.30;;;;;;4920405;29;20206;-86
2021/07/09 02:20:49;;;;;;;8.75;7.80;;;22.10;99.10;;;;;;4918769;29;20213;-86
2021/07/09 02:23:17;;;;;;;9.27;8.32;;;22.00;99.50;;;;;;4921155;29;20218;-86
2021/07/09 02:25:46;;;;;;;10.90;9.02;;;22.00;99.90;;;;;;4917611;29;20213;-85
2021/07/09 02:28:15;;;;;;;10.63;8.93;;;21.90;99.90;;;;;;4917249;29;20266;-85
2021/07/09 02:30:44;;;;;;;10.27;9.25;;;21.80;99.90;;;;;;4921645;29;20217;-86
2021/07/09 02:33:14;;;;;;;10.10;9.10;;;21.80;99.90;;;;;;4920858;29;20233;-86
2021/07/09 02:35:43;;;;;;;10.32;9.32;;;21.70;99.90;;;;;;4926265;29;20214;-85
2021/07/09 02:38:11;;;;;;;10.53;9.47;;;21.70;99.90;;;;;;4920092;29;20233;-85
2021/07/09 02:40:42;;;;;;;11.32;9.57;;;21.60;99.90;;;;;;4941675;28;20203;-85
2021/07/09 02:43:11;;;;;;;12.43;10.33;;;21.60;99.90;;;;;;4927013;29;20217;-86
2021/07/09 02:45:39;;;;;;;10.20;9.17;;;21.50;99.90;;;;;;4911577;29;20222;-86
2021/07/09 02:48:19;;;;;;;13.45;10.00;;;21.50;99.90;;;;;;4918798;29;20252;-86
2021/07/09 02:50:49;;;;;;;11.97;9.43;;;21.40;99.90;;;;;;4921758;29;20877;-86
2021/07/09 02:53:18;;;;;;;10.55;9.43;;;21.40;99.90;;;;;;4928361;29;20240;-85
2021/07/09 02:55:47;;;;;;;11.05;9.95;;;21.40;99.90;;;;;;4911265;29;21087;-85
2021/07/09 02:58:16;;;;;;;12.50;10.87;;;21.40;99.90;;;;;;4931293;29;20217;-84
2021/07/09 03:00:45;;;;;;;14.37;12.60;;;21.30;99.90;;;;;;4944253;29;20920;-85
2021/07/09 03:03:13;;;;;;;20.67;18.47;;;21.30;99.90;;;;;;4924519;29;20195;-85
2021/07/09 03:05:43;;;;;;;12.73;10.20;;;21.30;99.90;;;;;;4933428;29;20202;-85
2021/07/09 03:08:12;;;;;;;11.50;10.30;;;21.30;99.90;;;;;;4931407;28;20192;-84
2021/07/09 03:10:41;;;;;;;10.50;9.27;;;21.30;99.90;;;;;;4947608;28;20311;-86
2021/07/09 03:13:10;;;;;;;11.20;10.13;;;21.30;99.90;;;;;;4947778;28;20526;-85
2021/07/09 03:15:39;;;;;;;11.37;10.37;;;21.30;99.90;;;;;;4911135;29;20214;-84
2021/07/09 03:18:08;;;;;;;12.53;10.07;;;21.30;99.90;;;;;;4919425;29;20224;-84
2021/07/09 03:20:37;;;;;;;11.03;10.03;;;21.30;99.90;;;;;;4925146;29;20206;-87
2021/07/09 03:23:11;;;;;;;11.07;10.00;;;21.40;99.90;;;;;;4929606;29;20210;-86
2021/07/09 03:25:40;;;;;;;10.73;9.37;;;21.40;99.90;;;;;;4947376;28;20524;-86
2021/07/09 03:28:09;;;;;;;11.50;9.63;;;21.50;99.90;;;;;;4928680;29;20210;-86
2021/07/09 03:30:38;;;;;;;10.27;9.30;;;21.50;99.90;;;;;;4937602;29;20221;-86
2021/07/09 03:33:09;;;;;;;10.18;8.90;;;21.60;99.90;;;;;;4930445;29;20240;-86
2021/07/09 03:35:38;;;;;;;12.07;9.57;;;21.50;99.90;;;;;;4929274;28;20261;-86
2021/07/09 03:38:07;;;;;;;10.90;9.90;;;21.60;99.90;;;;;;4939264;28;20212;-85
2021/07/09 03:40:37;;;;;;;10.27;9.03;;;21.70;99.90;;;;;;4922357;29;20218;-86
2021/07/09 03:43:07;;;;;;;11.43;9.20;;;21.80;99.90;;;;;;4900753;29;20616;-85
2021/07/09 03:45:36;;;;;;;11.52;10.35;;;21.90;99.90;;;;;;4921838;29;20217;-86
2021/07/09 03:48:05;;;;;;;11.10;10.10;;;21.90;99.90;;;;;;4916870;29;20198;-86
2021/07/09 03:50:34;;;;;;;11.03;9.83;;;21.90;99.90;;;;;;4929023;29;20466;-86
2021/07/09 03:53:04;;;;;;;10.95;9.85;;;21.90;99.90;;;;;;4907765;29;20664;-86
2021/07/09 03:55:32;;;;;;;10.50;9.25;;;21.90;99.90;;;;;;4927633;29;20213;-85
2021/07/09 03:58:03;;;;;;;10.35;9.32;;;21.90;99.90;;;;;;4918839;29;20218;-85
2021/07/09 04:00:31;;;;;;;9.73;8.73;;;22.00;99.90;;;;;;4930931;29;20206;-85
2021/07/09 04:03:00;;;;;;;10.50;9.00;;;22.00;99.90;;;;;;4928628;29;20202;-84
2021/07/09 04:05:30;;;;;;;10.43;8.88;;;22.10;99.90;;;;;;4933694;29;20214;-86
2021/07/09 04:07:59;;;;;;;8.98;8.10;;;22.10;99.90;;;;;;4926003;29;20266;-84
2021/07/09 04:10:27;;;;;;;9.48;8.68;;;22.20;99.90;;;;;;4945369;28;20194;-86
2021/07/09 04:12:57;;;;;;;10.25;9.25;;;22.20;99.70;;;;;;4944456;28;20265;-85
2021/07/09 04:15:28;;;;;;;12.13;9.50;;;22.30;99.90;;;;;;4937588;29;20209;-86
2021/07/09 04:18:00;;;;;;;11.18;10.02;;;22.40;99.50;;;;;;4931774;29;20198;-85
2021/07/09 04:20:29;;;;;;;10.05;8.80;;;22.50;99.90;;;;;;4927421;29;20210;-85
2021/07/09 04:22:58;;;;;;;9.57;8.55;;;22.60;98.80;;;;;;4929146;29;20213;-83
2021/07/09 04:25:26;;;;;;;10.68;9.10;;;22.70;97.60;;;;;;4926369;29;20202;-84
2021/07/09 04:27:55;;;;;;;10.32;9.15;;;22.70;97.70;;;;;;4910512;28;20222;-86
2021/07/09 04:30:24;;;;;;;12.00;9.18;;;22.80;97.70;;;;;;4929727;29;20461;-84
2021/07/09 04:32:54;;;;;;;11.88;8.70;;;22.80;97.80;;;;;;4920798;29;20229;-85
2021/07/09 04:35:24;;;;;;;9.45;8.38;;;22.90;97.50;;;;;;4932340;29;20246;-85
2021/07/09 04:37:52;;;;;;;9.32;8.43;;;22.90;97.30;;;;;;4940421;28;20533;-86
2021/07/09 04:40:21;;;;;;;10.40;9.30;;;22.90;97.50;;;;;;4933365;29;20221;-88
2021/07/09 04:42:50;;;;;;;9.95;9.05;;;22.90;98.50;;;;;;4937471;29;20488;-84
2021/07/09 04:45:19;;;;;;;8.43;7.60;;;22.90;97.40;;;;;;4921990;28;20269;-86
2021/07/09 04:47:48;;;;;;;9.90;8.45;;;23.00;96.50;;;;;;4932022;28;21705;-87
2021/07/09 04:50:18;;;;;;;9.48;8.48;;;23.20;96.10;;;;;;4923417;28;20300;-87
2021/07/09 04:52:46;;;;;;;9.40;8.60;;;23.40;94.90;;;;;;4937091;28;20213;-85
2021/07/09 04:55:15;;;;;;;9.90;9.02;;;23.50;95.20;;;;;;4937332;29;20238;-86
2021/07/09 04:57:44;;;;;;;11.07;8.40;;;23.60;94.80;;;;;;4934450;29;20202;-86
2021/07/09 05:00:13;;;;;;;10.57;8.75;;;23.70;94.50;;;;;;4932095;29;20277;-85
2021/07/09 05:02:42;;;;;;;10.57;9.60;;;23.90;94.60;;;;;;4937957;29;20206;-86
2021/07/09 05:05:14;;;;;;;9.80;8.80;;;24.00;94.50;;;;;;4937987;28;20211;-86
2021/07/09 05:07:48;;;;;;;10.02;8.43;;;24.10;93.60;;;;;;4933797;28;20300;-85
2021/07/09 05:10:17;;;;;;;9.93;9.02;;;24.10;93.60;;;;;;4920522;29;20206;-88
2021/07/09 05:12:46;;;;;;;9.63;8.73;;;24.00;93.80;;;;;;4919667;29;20240;-87
2021/07/09 05:15:15;;;;;;;11.88;8.63;;;23.90;93.80;;;;;;4922151;29;20969;-87
2021/07/09 05:17:44;;;;;;;9.52;8.68;;;23.90;93.90;;;;;;4918786;29;20218;-87
2021/07/09 05:20:14;;;;;;;9.45;8.65;;;23.80;93.90;;;;;;4923872;29;20210;-87
2021/07/09 05:22:43;;;;;;;11.05;8.65;;;23.90;93.70;;;;;;4921150;29;20210;-85
2021/07/09 05:25:15;;;;;;;9.38;8.48;;;23.90;93.70;;;;;;4918253;29;20233;-85
2021/07/09 05:27:44;;;;;;;9.57;8.52;;;23.90;93.80;;;;;;4911393;29;20346;-88
2021/07/09 05:30:14;;;;;;;8.98;8.18;;;24.00;94.40;;;;;;4914574;29;20232;-87
2021/07/09 05:32:44;;;;;;;10.57;8.70;;;24.10;93.70;;;;;;4913962;29;20245;-84
2021/07/09 05:35:14;;;;;;;10.20;8.63;;;24.40;93.20;;;;;;4916253;29;20229;-85
2021/07/09 05:37:43;;;;;;;8.57;7.70;;;24.70;92.50;;;;;;4912770;29;20210;-85
2021/07/09 05:40:15;;;;;;;8.73;7.93;;;24.80;92.30;;;;;;4901146;29;20570;-85
2021/07/09 05:42:47;;;;;;;10.85;8.48;;;25.00;91.90;;;;;;4914895;29;20217;-86
2021/07/09 05:45:15;;;;;;;10.52;8.65;;;25.20;91.60;;;;;;4914827;29;20216;-85
2021/07/09 05:47:44;;;;;;;10.85;8.25;;;25.30;91.60;;;;;;4910794;29;20296;-84
2021/07/09 05:50:13;;;;;;;9.38;8.57;;;25.50;91.70;;;;;;4912464;29;20561;-83
2021/07/09 05:52:42;;;;;;;9.85;8.80;;;25.50;91.30;;;;;;4914966;29;20206;-83
2021/07/09 05:55:12;;;;;;;10.70;8.65;;;25.60;91.20;;;;;;4925946;29;20257;-84
2021/07/09 05:57:43;;;;;;;9.80;8.90;;;25.60;91.40;;;;;;4918897;29;20347;-84
2021/07/09 06:00:13;;;;;;;10.07;8.80;;;25.70;91.50;;;;;;4929883;28;20254;-83
2021/07/09 06:02:42;;;;;;;10.98;9.38;;;25.90;91.10;;;;;;4931234;28;20297;-85
2021/07/09 06:05:13;;;;;;;10.20;9.30;;;25.90;91.70;;;;;;4925264;28;20206;-85
2021/07/09 06:07:44;;;;;;;10.00;8.70;;;26.00;91.40;;;;;;4913928;29;21208;-86
2021/07/09 06:10:14;;;;;;;11.77;8.75;;;26.10;91.30;;;;;;4922919;29;21263;-85
2021/07/09 06:12:44;;;;;;;9.60;8.75;;;26.10;91.00;;;;;;4919334;28;20214;-83
2021/07/09 06:15:16;;;;;;;10.45;9.32;;;26.10;91.00;;;;;;4911702;29;20285;-84
2021/07/09 06:17:45;;;;;;;10.27;9.18;;;26.10;91.70;;;;;;4920764;29;20324;-84
2021/07/09 06:20:14;;;;;;;10.60;9.60;;;26.40;91.80;;;;;;4926476;28;20476;-85
2021/07/09 06:22:43;;;;;;;9.63;8.77;;;26.60;91.40;;;;;;4924093;28;20210;-83
2021/07/09 06:25:12;;;;;;;10.13;9.13;;;26.80;90.20;;;;;;4924017;29;20234;-85
2021/07/09 06:27:41;;;;;;;11.82;9.10;;;27.00;90.40;;;;;;4916191;29;20217;-85
2021/07/09 06:30:13;;;;;;;10.52;9.25;;;27.00;90.00;;;;;;4926364;29;20324;-85
2021/07/09 06:32:42;;;;;;;9.85;8.45;;;27.20;89.70;;;;;;4915136;28;20210;-85
2021/07/09 06:35:14;;;;;;;9.25;8.35;;;27.30;90.10;;;;;;4887139;29;20234;-84
2021/07/09 06:37:44;;;;;;;8.77;7.97;;;27.30;89.40;;;;;;4903345;29;20263;-87
2021/07/09 06:40:13;;;;;;;11.25;8.50;;;27.30;89.80;;;;;;4902047;29;20283;-83
2021/07/09 06:42:42;;;;;;;8.77;8.07;;;27.30;89.80;;;;;;4903911;29;20386;-84
2021/07/09 06:45:13;;;;;;;9.45;8.55;;;27.40;89.60;;;;;;4901288;29;20210;-85
2021/07/09 06:47:43;;;;;;;11.40;8.60;;;27.50;89.50;;;;;;4902642;29;20254;-86
2021/07/09 06:50:13;;;;;;;9.85;9.02;;;27.50;89.70;;;;;;4904113;29;20734;-84
2021/07/09 06:52:43;;;;;;;9.13;8.23;;;27.60;89.30;;;;;;4909689;29;20247;-80
2021/07/09 06:55:14;;;;;;;8.65;7.80;;;27.80;89.60;;;;;;4910277;29;20931;-85
2021/07/09 06:57:47;;;;;;;9.10;8.02;;;28.10;87.70;;;;;;4912928;29;20225;-83
2021/07/09 07:00:19;;;;;;;9.30;7.38;;;28.10;86.70;;;;;;4917232;29;20214;-85
2021/07/09 07:02:49;;;;;;;9.95;8.63;;;28.30;87.00;;;;;;4914759;29;20834;-84
2021/07/09 07:05:18;;;;;;;10.63;8.52;;;28.50;87.40;;;;;;4920583;29;20512;-85
2021/07/09 07:07:47;;;;;;;9.10;8.25;;;28.50;86.80;;;;;;4913720;29;20217;-86
2021/07/09 07:10:16;;;;;;;9.73;8.38;;;28.40;87.00;;;;;;4925280;29;20230;-84
2021/07/09 07:12:47;;;;;;;9.43;8.55;;;28.30;86.90;;;;;;4929144;29;20222;-85
2021/07/09 07:15:19;;;;;;;8.95;8.10;;;28.40;86.50;;;;;;4935936;28;20253;-84
2021/07/09 07:17:48;;;;;;;8.98;8.05;;;28.40;86.20;;;;;;4921798;28;20206;-81
2021/07/09 07:20:17;;;;;;;9.35;8.38;;;28.30;86.30;;;;;;4922699;29;20277;-86
2021/07/09 07:22:45;;;;;;;9.13;8.23;;;28.50;86.70;;;;;;4917468;29;20210;-83
2021/07/09 07:25:14;;;;;;;10.13;8.77;;;28.50;86.30;;;;;;4906312;29;20601;-82
2021/07/09 07:27:43;;;;;;;9.60;8.80;;;28.40;86.50;;;;;;4916240;29;20211;-83
2021/07/09 07:30:13;;;;;;;10.00;8.73;;;28.40;86.70;;;;;;4916450;29;20217;-86
2021/07/09 07:32:46;;;;;;;9.52;8.45;;;28.20;86.90;;;;;;4915388;29;20253;-82
2021/07/09 07:35:15;;;;;;;9.65;8.38;;;28.10;86.90;;;;;;4919756;29;20658;-83
2021/07/09 07:37:44;;;;;;;9.38;8.48;;;28.10;87.70;;;;;;4923687;28;20222;-84
2021/07/09 07:40:18;;;;;;;9.95;8.95;;;28.20;87.40;;;;;;4908426;28;20532;-85
2021/07/09 07:42:48;;;;;;;10.40;9.05;;;28.20;87.20;;;;;;4907662;29;20206;-86
2021/07/09 07:45:17;;;;;;;10.20;9.30;;;28.30;87.10;;;;;;4901070;29;20208;-83
2021/07/09 07:47:47;;;;;;;10.70;9.13;;;28.20;86.80;;;;;;4905038;29;20719;-84
2021/07/09 07:50:17;;;;;;;10.25;9.35;;;28.20;87.40;;;;;;4903680;29;20618;-82
2021/07/09 07:52:46;;;;;;;10.82;9.40;;;28.30;87.10;;;;;;4904786;29;20242;-83
2021/07/09 07:55:17;;;;;;;9.75;8.80;;;28.40;87.20;;;;;;4907001;29;20230;-85
2021/07/09 07:57:49;;;;;;;10.43;9.52;;;28.70;87.20;;;;;;4923543;29;20642;-84
2021/07/09 08:00:18;;;;;;;11.10;9.20;;;28.90;87.30;;;;;;4911891;29;20210;-84
2021/07/09 08:02:48;;;;;;;11.38;10.27;;;29.10;86.60;;;;;;4903965;29;20202;-84
2021/07/09 08:05:17;;;;;;;10.70;9.60;;;29.20;86.80;;;;;;4905163;29;20621;-83
2021/07/09 08:07:46;;;;;;;10.60;9.70;;;29.30;87.10;;;;;;4903700;29;20218;-86
2021/07/09 08:10:15;;;;;;;11.23;10.10;;;29.60;86.80;;;;;;4923493;28;20233;-83
2021/07/09 08:12:44;;;;;;;11.32;10.00;;;29.50;86.80;;;;;;4916360;28;20218;-85
2021/07/09 08:15:14;;;;;;;10.25;9.43;;;29.50;86.60;;;;;;4909161;29;20695;-80
2021/07/09 08:17:43;;;;;;;10.10;9.18;;;29.50;86.30;;;;;;4919250;29;20243;-82
2021/07/09 08:20:14;;;;;;;9.52;8.63;;;29.60;86.20;;;;;;4876244;29;20482;-83
2021/07/09 08:22:43;;;;;;;10.05;9.15;;;29.60;86.60;;;;;;4907114;29;20278;-81
2021/07/09 08:25:16;;;;;;;10.98;9.85;;;29.70;86.50;;;;;;4906353;29;20210;-85
2021/07/09 08:27:46;;;;;;;11.20;10.18;;;29.60;86.70;;;;;;4912704;29;20530;-82
2021/07/09 08:30:15;;;;;;;15.98;14.25;;;29.60;86.50;;;;;;4918311;29;20209;-82
2021/07/09 08:32:44;;;;;;;11.95;10.82;;;29.40;86.70;;;;;;4919979;29;20225;-82
2021/07/09 08:35:15;;;;;;;11.90;10.60;;;29.40;86.70;;;;;;4917926;29;20210;-83
2021/07/09 08:37:52;;;;;;;11.27;10.07;;;29.40;86.60;;;;;;4911765;29;20202;-86
2021/07/09 08:40:22;;;;;;;11.38;10.18;;;29.30;86.70;;;;;;4908208;29;20845;-84
2021/07/09 08:42:50;;;;;;;12.32;11.02;;;29.10;86.90;;;;;;4907571;29;20213;-82
2021/07/09 08:45:19;;;;;;;13.15;11.40;;;28.70;87.30;;;;;;4900685;29;20524;-84
2021/07/09 08:47:49;;;;;;;11.90;10.90;;;28.70;87.80;;;;;;4907578;29;20206;-85
2021/07/09 08:50:19;;;;;;;11.98;10.68;;;28.80;87.90;;;;;;4911593;29;20206;-85
2021/07/09 08:52:48;;;;;;;12.88;10.98;;;28.80;87.70;;;;;;4911108;29;20285;-85
2021/07/09 08:55:18;;;;;;;11.15;10.25;;;28.90;88.20;;;;;;4905050;29;20746;-84
2021/07/09 08:57:48;;;;;;;11.48;9.95;;;29.10;88.20;;;;;;4912569;29;20457;-83
2021/07/09 09:00:42;;;;;;;11.25;10.25;;;29.20;87.30;;;;;;4912356;29;20729;-84
2021/07/09 09:03:14;;;;;;;11.55;10.23;;;29.30;87.20;;;;;;4909468;29;20210;-83
2021/07/09 09:05:45;;;;;;;11.38;10.38;;;29.30;87.50;;;;;;4929710;28;20206;-85
2021/07/09 09:08:17;;;;;;;12.18;10.77;;;29.00;87.40;;;;;;4902411;29;20226;-83
2021/07/09 09:10:47;;;;;;;11.93;10.80;;;28.90;87.10;;;;;;4907495;29;20218;-85
2021/07/09 09:13:23;;;;;;;11.85;10.68;;;28.90;87.10;;;;;;4907082;29;20214;-83
2021/07/09 09:16:01;;;;;;;11.68;10.57;;;29.20;87.90;;;;;;4910964;29;20245;-83
2021/07/09 09:18:37;;;;;;;11.82;10.73;;;29.50;87.60;;;;;;4897975;29;20592;-82
2021/07/09 09:21:10;;;;;;;12.45;9.75;;;29.60;87.40;;;;;;4911816;29;20592;-82
2021/07/09 09:23:51;;;;;;;14.18;10.93;;;29.30;87.20;;;;;;4912174;29;20289;-84
2021/07/09 09:26:42;;;;;;;12.32;11.23;;;28.90;87.60;;;;;;4902868;29;21154;-84
2021/07/09 09:29:13;;;;;;;14.23;11.05;;;29.00;88.20;;;;;;4905036;29;20198;-83
2021/07/09 09:31:43;;;;;;;11.93;10.95;;;29.30;88.20;;;;;;4921797;29;20226;-83
2021/07/09 09:34:14;;;;;;;13.05;11.93;;;29.60;87.90;;;;;;4919210;29;20526;-85
2021/07/09 09:37:00;;;;;;;11.20;10.25;;;29.90;87.10;;;;;;4917776;29;20498;-84
2021/07/09 09:39:31;;;;;;;12.45;11.25;;;29.70;87.20;;;;;;4908579;29;20239;-84
2021/07/09 09:42:17;;;;;;;13.60;11.52;;;29.80;88.00;;;;;;4906283;29;20210;-84
2021/07/09 09:44:48;;;;;;;13.18;11.85;;;29.50;86.90;;;;;;4908966;29;20637;-85
2021/07/09 09:47:19;;;;;;;12.80;11.60;;;29.30;87.30;;;;;;4907957;29;20388;-81
2021/07/09 09:49:54;;;;;;;12.93;11.73;;;29.30;87.70;;;;;;4922226;28;20210;-82
2021/07/09 09:52:39;;;;;;;13.50;12.23;;;29.40;87.50;;;;;;4906630;29;20288;-85
2021/07/09 09:55:09;;;;;;;12.85;11.52;;;29.50;87.50;;;;;;4916119;29;20225;-84
2021/07/09 09:57:39;;;;;;;13.00;11.75;;;29.70;87.00;;;;;;4907292;29;20229;-86
2021/07/09 10:00:11;;;;;;;14.32;12.23;;;29.70;87.10;;;;;;4924673;28;20206;-82
2021/07/09 10:02:44;;;;;;;13.32;11.93;;;29.50;87.20;;;;;;4926220;28;20450;-85
2021/07/09 10:05:13;;;;;;;13.27;11.95;;;29.70;87.50;;;;;;4921005;29;20211;-84
2021/07/09 10:07:45;;;;;;;14.30;12.77;;;30.00;87.00;;;;;;4924119;28;20229;-83
2021/07/09 10:10:17;;;;;;;13.02;11.82;;;30.00;86.80;;;;;;4925537;28;20206;-83
2021/07/09 10:13:02;;;;;;;13.18;11.75;;;29.90;86.70;;;;;;4914928;29;20252;-83
2021/07/09 10:15:31;;;;;;;13.07;11.85;;;30.00;87.00;;;;;;4899595;29;20348;-84
2021/07/09 10:18:00;;;;;;;13.68;12.27;;;30.20;86.90;;;;;;4900223;29;20376;-83
2021/07/09 10:20:29;;;;;;;13.02;12.02;;;30.20;86.30;;;;;;4900493;29;20801;-82
2021/07/09 10:23:03;;;;;;;12.80;11.70;;;30.20;86.50;;;;;;4905067;29;20241;-85
2021/07/09 10:25:32;;;;;;;13.30;12.07;;;30.30;86.30;;;;;;4911735;29;20202;-84
2021/07/09 10:28:06;;;;;;;14.20;12.32;;;30.20;85.60;;;;;;4907832;29;20556;-80
2021/07/09 10:30:39;;;;;;;13.38;12.18;;;30.10;85.60;;;;;;4924048;29;20210;-81
2021/07/09 10:33:31;;;;;;;13.73;12.43;;;30.10;86.00;;;;;;4923703;29;20210;-83
2021/07/09 10:36:05;;;;;;;14.43;12.27;;;30.20;85.60;;;;;;4910143;29;20498;-82
2021/07/09 10:38:40;;;;;;;13.77;12.45;;;30.40;86.00;;;;;;4869654;29;1181122;-81
2021/07/09 10:41:18;;;;;;;12.73;11.43;;;30.90;86.30;;;;;;4909745;29;20205;-82
2021/07/09 10:44:12;;;;;;;14.23;12.52;;;31.00;85.30;;;;;;4923090;29;20217;-82
2021/07/09 10:46:41;;;;;;;12.43;11.32;;;31.00;85.40;;;;;;4912655;29;20214;-83
2021/07/09 10:49:11;;;;;;;12.57;11.38;;;31.10;85.30;;;;;;4914689;29;20202;-82
2021/07/09 10:51:51;;;;;;;13.13;11.93;;;31.00;84.90;;;;;;4909683;29;20246;-84
2021/07/09 10:54:29;;;;;;;13.50;12.10;;;31.00;85.00;;;;;;4911786;29;20209;-82
2021/07/09 10:57:20;;;;;;;13.02;11.73;;;30.90;85.40;;;;;;4913629;29;20233;-85
2021/07/09 11:00:21;;;;;;;13.65;12.38;;;30.70;85.40;;;;;;4900968;29;20439;-83
2021/07/09 11:03:00;;;;;;;12.80;11.57;;;30.50;85.80;;;;;;4902326;29;20233;-82
2021/07/09 11:05:53;;;;;;;12.88;11.77;;;30.50;85.50;;;;;;4932999;28;20208;-84
2021/07/09 11:08:43;;;;;;;13.88;12.57;;;30.70;86.20;;;;;;4907056;28;20226;-84
2021/07/09 11:11:14;;;;;;;13.40;12.20;;;30.60;85.60;;;;;;4937154;28;20217;-83
2021/07/09 11:13:49;;;;;;;13.30;12.07;;;30.40;85.30;;;;;;4937141;28;20206;-84
2021/07/09 11:16:27;;;;;;;13.23;11.98;;;30.30;85.60;;;;;;4934452;28;20262;-83
2021/07/09 11:19:02;;;;;;;14.38;13.07;;;30.20;85.80;;;;;;4930038;28;20230;-84
2021/07/09 11:21:54;;;;;;;13.57;12.20;;;30.40;85.60;;;;;;4928002;29;20205;-83
2021/07/09 11:24:29;;;;;;;13.93;12.55;;;30.50;86.30;;;;;;4926114;28;20594;-86
2021/07/09 11:27:01;;;;;;;14.27;13.00;;;30.60;86.00;;;;;;4930949;28;20202;-83
2021/07/09 11:29:33;;;;;;;14.63;13.38;;;30.40;86.10;;;;;;4931512;28;20209;-86
2021/07/09 11:32:10;;;;;;;16.02;12.85;;;30.30;86.00;;;;;;4933332;28;20217;-86
2021/07/09 11:34:42;;;;;;;14.18;12.93;;;30.20;86.60;;;;;;4928594;28;20198;-82
2021/07/09 11:37:14;;;;;;;13.90;12.50;;;30.20;86.00;;;;;;4897203;29;21386;-82
2021/07/09 11:39:44;;;;;;;13.32;12.13;;;30.20;86.00;;;;;;4919545;29;20305;-82
2021/07/09 11:42:15;;;;;;;13.10;11.90;;;30.10;85.90;;;;;;4911956;29;20449;-84
2021/07/09 11:44:45;;;;;;;13.52;12.38;;;30.00;85.80;;;;;;4917078;29;20787;-85
2021/07/09 11:47:17;;;;;;;13.98;12.52;;;30.00;86.10;;;;;;4907685;29;20629;-84
2021/07/09 11:49:48;;;;;;;13.88;12.65;;;30.00;86.60;;;;;;4911570;29;21801;-85
2021/07/09 11:52:23;;;;;;;13.43;12.23;;;30.00;86.30;;;;;;4912153;29;20245;-85
2021/07/09 11:54:52;;;;;;;13.75;12.50;;;30.10;86.20;;;;;;4918153;29;20271;-83
2021/07/09 11:57:26;;;;;;;14.52;13.20;;;30.20;86.10;;;;;;4916821;29;20245;-85
2021/07/09 12:00:09;;;;;;;14.68;13.10;;;30.00;86.30;;;;;;4910616;29;20438;-85
2021/07/09 12:02:39;;;;;;;14.27;12.98;;;30.10;86.40;;;;;;4915220;29;20210;-83
2021/07/09 12:05:11;;;;;;;14.02;12.77;;;30.20;86.30;;;;;;4918817;28;20195;-86
2021/07/09 12:07:41;;;;;;;14.98;13.52;;;30.30;86.00;;;;;;4931415;28;20244;-83
2021/07/09 12:10:12;;;;;;;15.85;13.15;;;30.40;86.70;;;;;;4909465;29;20584;-84
2021/07/09 12:12:44;;;;;;;14.57;13.23;;;30.50;86.00;;;;;;4911577;29;20214;-83
2021/07/09 12:15:17;;;;;;;13.85;12.48;;;30.50;85.90;;;;;;4908004;29;20416;-84
2021/07/09 12:17:48;;;;;;;15.15;12.85;;;30.50;85.90;;;;;;4902583;29;20261;-82
2021/07/09 12:20:22;;;;;;;12.10;11.07;;;30.50;86.20;;;;;;4908329;29;21435;-83
2021/07/09 12:22:55;;;;;;;12.43;11.20;;;30.80;85.80;;;;;;4914085;29;20206;-85
2021/07/09 12:25:27;;;;;;;12.35;11.25;;;30.80;84.70;;;;;;4906819;29;20202;-83
2021/07/09 12:27:59;;;;;;;12.32;11.23;;;30.90;84.70;;;;;;4911052;29;20211;-85
2021/07/09 12:30:31;;;;;;;12.50;11.35;;;30.90;85.00;;;;;;4912121;29;20241;-84
2021/07/09 12:33:03;;;;;;;12.65;11.38;;;31.20;84.80;;;;;;4924994;28;20202;-85
2021/07/09 12:35:53;;;;;;;11.68;10.65;;;31.50;84.20;;;;;;4930628;28;20284;-86
2021/07/09 12:38:24;;;;;;;10.70;9.60;;;31.70;83.70;;;;;;4915541;29;20502;-83
2021/07/09 12:40:54;;;;;;;10.75;9.65;;;32.00;83.00;;;;;;4920284;29;20707;-86
2021/07/09 12:43:46;;;;;;;10.32;9.45;;;32.10;81.20;;;;;;4931334;29;20198;-83
2021/07/09 12:46:18;;;;;;;10.52;9.40;;;32.00;81.40;;;;;;4918885;29;20584;-84
2021/07/09 12:48:57;;;;;;;10.38;9.48;;;32.30;80.80;;;;;;4912972;29;20605;-83
2021/07/09 12:51:28;;;;;;;12.10;9.80;;;32.60;80.50;;;;;;4919828;29;20217;-82
2021/07/09 12:53:59;;;;;;;10.60;9.52;;;33.00;81.20;;;;;;4915868;28;20380;-84